createdAt,value
2018-03-31T00:01:19.699Z,15.60
2018-03-31T00:03:54.232Z,15.27
2018-03-31T00:06:29.230Z,15.10
2018-03-31T00:08:58.190Z,15.10
2018-03-31T00:11:26.920Z,14.83
2018-03-31T00:13:56.321Z,16.60
2018-03-31T00:16:25.516Z,15.07
2018-03-31T00:18:57.515Z,13.73
2018-03-31T00:21:28.826Z,14.53
2018-03-31T00:24:01.940Z,16.20
2018-03-31T00:26:30.959Z,16.17
2018-03-31T00:28:59.599Z,14.53
2018-03-31T00:31:28.270Z,14.73
2018-03-31T00:33:57.572Z,15.20
2018-03-31T00:36:26.875Z,16.17
2018-03-31T00:38:55.627Z,15.50
2018-03-31T00:41:25.093Z,15.83
2018-03-31T00:43:54.136Z,15.73
2018-03-31T00:46:23.026Z,16.07
2018-03-31T00:48:51.797Z,16.10
2018-03-31T00:51:20.628Z,15.43
2018-03-31T00:53:49.241Z,14.47
2018-03-31T00:56:18.007Z,14.40
2018-03-31T00:58:46.866Z,15.27
2018-03-31T01:01:15.552Z,15.87
2018-03-31T01:03:44.146Z,16.40
2018-03-31T01:06:14.207Z,16.17
2018-03-31T01:08:44.620Z,14.67
2018-03-31T01:11:14.191Z,14.90
2018-03-31T01:13:43.554Z,15.27
2018-03-31T01:16:12.284Z,14.17
2018-03-31T01:18:41.097Z,15.33
2018-03-31T01:21:09.950Z,14.20
2018-03-31T01:23:38.850Z,14.13
2018-03-31T01:26:07.651Z,15.23
2018-03-31T01:28:36.889Z,14.60
2018-03-31T01:31:05.781Z,16.83
2018-03-31T01:33:34.655Z,14.40
2018-03-31T01:36:03.230Z,16.50
2018-03-31T01:38:32.034Z,16.40
2018-03-31T01:41:01.297Z,15.87
2018-03-31T01:43:30.186Z,16.47
2018-03-31T01:45:59.036Z,16.80
2018-03-31T01:48:27.770Z,17.50
2018-03-31T01:50:57.527Z,17.17
2018-03-31T01:53:26.213Z,16.07
2018-03-31T01:55:55.130Z,17.13
2018-03-31T01:58:24.153Z,15.37
2018-03-31T02:00:52.852Z,15.30
2018-03-31T02:03:21.937Z,15.87
2018-03-31T02:05:50.633Z,15.90
2018-03-31T02:08:20.315Z,14.50
2018-03-31T02:10:49.071Z,14.70
2018-03-31T02:13:17.712Z,15.27
2018-03-31T02:15:46.608Z,14.40
2018-03-31T02:18:15.947Z,14.67
2018-03-31T02:20:44.819Z,13.97
2018-03-31T02:23:13.682Z,14.60
2018-03-31T02:25:42.573Z,14.73
2018-03-31T02:28:11.362Z,15.20
2018-03-31T02:30:40.714Z,16.00
2018-03-31T02:33:09.462Z,14.77
2018-03-31T02:35:39.070Z,15.07
2018-03-31T02:38:08.556Z,15.67
2018-03-31T02:40:37.945Z,14.27
2018-03-31T02:43:07.078Z,13.83
2018-03-31T02:45:35.842Z,15.37
2018-03-31T02:48:04.550Z,15.23
2018-03-31T02:50:33.268Z,13.90
2018-03-31T02:53:03.197Z,15.20
2018-03-31T02:55:31.882Z,14.87
2018-03-31T02:58:00.571Z,14.40
2018-03-31T03:00:29.462Z,14.93
2018-03-31T03:02:59.516Z,14.63
2018-03-31T03:05:28.426Z,16.40
2018-03-31T03:07:57.961Z,14.23
2018-03-31T03:10:26.669Z,15.37
2018-03-31T03:12:55.496Z,16.13
2018-03-31T03:15:24.948Z,15.40
2018-03-31T03:17:53.399Z,14.43
2018-03-31T03:20:22.323Z,15.00
2018-03-31T03:22:50.803Z,13.90
2018-03-31T03:25:19.150Z,14.50
2018-03-31T03:27:50.316Z,15.40
2018-03-31T03:30:18.796Z,13.83
2018-03-31T03:32:48.739Z,15.87
2018-03-31T03:35:17.087Z,14.60
2018-03-31T03:37:45.375Z,14.20
2018-03-31T03:40:13.928Z,15.63
2018-03-31T03:42:42.346Z,16.30
2018-03-31T03:45:10.736Z,15.50
2018-03-31T03:47:40.025Z,16.50
2018-03-31T03:50:09.644Z,16.70
2018-03-31T03:52:38.891Z,15.80
2018-03-31T03:55:07.507Z,17.30
2018-03-31T03:57:36.336Z,16.97
2018-03-31T04:00:04.854Z,17.00
2018-03-31T04:02:33.196Z,16.37
2018-03-31T04:05:02.416Z,16.10
2018-03-31T04:07:31.080Z,16.23
2018-03-31T04:09:59.366Z,16.50
2018-03-31T04:12:27.721Z,15.43
2018-03-31T04:14:57.228Z,15.70
2018-03-31T04:17:26.120Z,15.93
2018-03-31T04:19:54.794Z,15.43
2018-03-31T04:22:24.108Z,16.17
2018-03-31T04:24:52.470Z,16.00
2018-03-31T04:27:21.251Z,15.70
2018-03-31T04:29:49.740Z,15.60
2018-03-31T04:32:19.287Z,14.83
2018-03-31T04:34:47.694Z,15.63
2018-03-31T04:37:16.432Z,14.97
2018-03-31T04:39:45.630Z,15.97
2018-03-31T04:42:15.471Z,15.43
2018-03-31T04:44:43.750Z,15.40
2018-03-31T04:47:12.046Z,16.57
2018-03-31T04:49:40.410Z,14.80
2018-03-31T04:52:09.136Z,14.33
2018-03-31T04:54:38.058Z,16.70
2018-03-31T04:57:06.492Z,15.93
2018-03-31T04:59:35.004Z,16.63
2018-03-31T05:02:03.560Z,16.33
2018-03-31T05:04:31.981Z,14.97
2018-03-31T05:07:00.712Z,14.63
2018-03-31T05:09:29.311Z,16.53
2018-03-31T05:11:57.818Z,15.40
2018-03-31T05:21:10.808Z,16.80
2018-03-31T05:23:39.747Z,16.43
2018-03-31T05:26:08.341Z,15.40
2018-03-31T05:28:36.863Z,17.43
2018-03-31T05:31:05.349Z,17.80
2018-03-31T05:33:34.012Z,17.70
2018-03-31T05:36:02.362Z,18.60
2018-03-31T05:38:31.060Z,16.43
2018-03-31T05:40:59.640Z,16.17
2018-03-31T05:43:28.131Z,14.50
2018-03-31T05:45:57.981Z,14.80
2018-03-31T05:48:26.421Z,14.10
2018-03-31T05:50:55.332Z,13.83
2018-03-31T05:53:23.942Z,14.60
2018-03-31T05:55:53.135Z,12.40
2018-03-31T05:58:21.978Z,15.87
2018-03-31T06:00:50.613Z,16.00
2018-03-31T06:03:19.830Z,15.93
2018-03-31T06:05:48.377Z,15.40
2018-03-31T06:08:17.065Z,16.33
2018-03-31T06:10:45.635Z,16.70
2018-03-31T06:13:14.108Z,16.53
2018-03-31T06:15:46.855Z,15.03
2018-03-31T06:18:18.447Z,14.50
2018-03-31T06:20:54.056Z,14.47
2018-03-31T06:23:24.700Z,12.60
2018-03-31T06:25:53.232Z,15.37
2018-03-31T06:28:21.845Z,13.90
2018-03-31T06:30:51.192Z,12.63
2018-03-31T06:33:19.681Z,11.87
2018-03-31T06:35:48.449Z,12.20
2018-03-31T06:38:16.933Z,11.37
2018-03-31T06:40:45.332Z,12.70
2018-03-31T06:43:13.737Z,11.17
2018-03-31T06:45:42.613Z,12.03
2018-03-31T06:48:12.306Z,12.73
2018-03-31T06:50:41.944Z,11.37
2018-03-31T06:53:11.205Z,11.70
2018-03-31T06:55:39.625Z,10.30
2018-03-31T06:58:08.057Z,11.80
2018-03-31T07:00:37.056Z,10.63
2018-03-31T07:03:06.269Z,11.20
2018-03-31T07:05:34.709Z,11.93
2018-03-31T07:08:04.106Z,11.00
2018-03-31T07:10:33.924Z,12.77
2018-03-31T07:13:02.325Z,11.90
2018-03-31T07:15:31.491Z,12.70
2018-03-31T07:18:01.090Z,11.67
2018-03-31T07:20:30.666Z,13.40
2018-03-31T07:23:04.659Z,12.83
2018-03-31T07:25:39.283Z,12.30
2018-03-31T07:28:09.275Z,12.67
2018-03-31T07:30:38.430Z,13.17
2018-03-31T07:33:06.751Z,12.13
2018-03-31T07:35:35.759Z,12.50
2018-03-31T07:38:04.264Z,11.70
2018-03-31T07:40:32.753Z,13.43
2018-03-31T07:43:01.236Z,13.50
2018-03-31T07:45:29.692Z,15.20
2018-03-31T07:47:58.122Z,13.50
2018-03-31T07:50:27.330Z,13.20
2018-03-31T07:52:55.966Z,13.43
2018-03-31T07:55:24.316Z,13.63
2018-03-31T07:57:52.816Z,13.40
2018-03-31T08:00:21.385Z,13.30
2018-03-31T08:02:49.894Z,12.60
2018-03-31T08:05:18.327Z,13.30
2018-03-31T08:07:47.537Z,13.20
2018-03-31T08:10:16.463Z,14.17
2018-03-31T08:12:44.801Z,13.40
2018-03-31T08:15:14.047Z,13.27
2018-03-31T08:17:42.724Z,15.00
2018-03-31T08:22:38.526Z,14.47
2018-03-31T08:25:07.873Z,14.60
2018-03-31T08:27:36.404Z,14.13
2018-03-31T08:30:05.114Z,13.33
2018-03-31T08:32:33.765Z,14.17
2018-03-31T08:35:02.968Z,14.90
2018-03-31T08:37:32.383Z,15.30
2018-03-31T08:40:01.181Z,14.03
2018-03-31T08:42:29.655Z,15.07
2018-03-31T08:44:58.157Z,13.73
2018-03-31T08:47:26.725Z,13.17
2018-03-31T08:49:56.195Z,15.60
2018-03-31T08:52:24.685Z,14.53
2018-03-31T08:54:53.245Z,15.13
2018-03-31T08:57:28.364Z,13.80
2018-03-31T08:59:58.974Z,15.23
2018-03-31T09:02:33.758Z,13.93
2018-03-31T09:05:07.395Z,13.30
2018-03-31T09:07:40.310Z,15.27
2018-03-31T09:10:12.835Z,13.90
2018-03-31T09:12:43.243Z,14.17
2018-03-31T09:15:12.750Z,14.67
2018-03-31T09:17:42.356Z,13.93
2018-03-31T09:20:17.027Z,13.77
2018-03-31T09:22:46.149Z,12.27
2018-03-31T09:25:14.966Z,13.70
2018-03-31T09:27:43.421Z,13.87
2018-03-31T09:30:12.563Z,13.73
2018-03-31T09:32:41.413Z,14.87
2018-03-31T09:35:09.850Z,14.27
2018-03-31T09:37:39.408Z,14.97
2018-03-31T09:40:07.913Z,12.97
2018-03-31T09:42:36.485Z,14.83
2018-03-31T09:45:05.490Z,13.60
2018-03-31T09:47:39.551Z,13.03
2018-03-31T09:50:11.077Z,13.53
2018-03-31T09:52:43.857Z,13.77
2018-03-31T09:55:13.701Z,13.10
2018-03-31T09:57:44.348Z,12.90
2018-03-31T10:00:15.013Z,12.97
2018-03-31T10:02:45.779Z,13.83
2018-03-31T10:05:15.545Z,14.67
2018-03-31T10:07:45.191Z,13.63
2018-03-31T10:10:15.894Z,13.70
2018-03-31T10:12:50.176Z,12.47
2018-03-31T10:15:21.043Z,11.70
2018-03-31T10:17:50.506Z,12.13
2018-03-31T10:20:21.372Z,10.30
2018-03-31T10:22:49.734Z,11.23
2018-03-31T10:25:18.491Z,12.00
2018-03-31T10:27:47.705Z,11.57
2018-03-31T10:30:17.459Z,12.10
2018-03-31T10:32:47.420Z,10.90
2018-03-31T10:35:16.684Z,10.93
2018-03-31T10:37:45.067Z,10.40
2018-03-31T10:40:13.434Z,10.40
2018-03-31T10:42:41.862Z,11.33
2018-03-31T10:45:10.981Z,11.23
2018-03-31T10:47:39.421Z,12.00
2018-03-31T10:50:07.892Z,10.83
2018-03-31T10:52:36.687Z,10.43
2018-03-31T10:55:05.027Z,11.97
2018-03-31T10:57:33.683Z,10.40
2018-03-31T11:00:03.280Z,12.70
2018-03-31T11:02:32.815Z,12.70
2018-03-31T11:05:01.188Z,12.10
2018-03-31T11:07:30.402Z,13.37
2018-03-31T11:09:58.849Z,12.40
2018-03-31T11:12:28.082Z,13.13
2018-03-31T11:14:56.534Z,13.60
2018-03-31T11:17:25.294Z,13.27
2018-03-31T11:19:53.810Z,12.47
2018-03-31T11:22:22.961Z,12.93
2018-03-31T11:24:51.398Z,11.87
2018-03-31T11:27:19.878Z,12.97
2018-03-31T11:29:51.963Z,11.80
2018-03-31T11:32:23.549Z,12.70
2018-03-31T11:34:52.295Z,12.07
2018-03-31T11:37:21.635Z,11.73
2018-03-31T11:39:51.088Z,11.77
2018-03-31T11:42:19.878Z,11.97
2018-03-31T11:44:49.056Z,12.23
2018-03-31T11:47:17.560Z,10.83
2018-03-31T11:49:46.103Z,10.60
2018-03-31T11:52:14.819Z,11.03
2018-03-31T11:54:43.237Z,11.70
2018-03-31T11:57:11.675Z,12.10
2018-03-31T11:59:40.354Z,12.43
2018-03-31T12:02:09.492Z,12.00
2018-03-31T12:04:38.590Z,11.97
2018-03-31T12:07:07.131Z,12.73
2018-03-31T12:09:35.534Z,13.37
2018-03-31T12:12:03.933Z,12.13
2018-03-31T12:14:32.362Z,13.67
2018-03-31T12:17:01.799Z,11.70
2018-03-31T12:19:30.307Z,11.83
2018-03-31T12:22:00.244Z,11.87
2018-03-31T12:24:29.971Z,12.47
2018-03-31T12:26:58.758Z,12.60
2018-03-31T12:29:29.504Z,11.67
2018-03-31T12:31:58.762Z,13.20
2018-03-31T12:34:28.037Z,13.83
2018-03-31T12:36:57.219Z,14.13
2018-03-31T12:39:27.159Z,13.20
2018-03-31T12:41:55.989Z,12.93
2018-03-31T12:44:25.254Z,10.17
2018-03-31T12:46:53.691Z,10.10
2018-03-31T12:49:22.982Z,10.23
2018-03-31T12:51:51.783Z,10.67
2018-03-31T12:54:20.518Z,11.90
2018-03-31T12:56:49.097Z,12.20
2018-03-31T12:59:18.232Z,11.67
2018-03-31T13:01:46.941Z,11.17
2018-03-31T13:04:15.446Z,11.73
2018-03-31T13:06:44.586Z,11.10
2018-03-31T13:09:13.024Z,11.17
2018-03-31T13:11:41.749Z,11.23
2018-03-31T13:14:10.323Z,11.10
2018-03-31T13:16:43.550Z,11.50
2018-03-31T13:19:20.251Z,11.97
2018-03-31T13:21:52.136Z,11.93
2018-03-31T13:24:21.619Z,11.40
2018-03-31T13:26:50.723Z,11.40
2018-03-31T13:29:19.550Z,10.93
2018-03-31T13:31:47.970Z,10.57
2018-03-31T13:34:16.370Z,10.60
2018-03-31T13:36:44.757Z,12.93
2018-03-31T13:39:13.717Z,14.57
2018-03-31T13:41:42.171Z,15.77
2018-03-31T13:44:10.607Z,14.73
2018-03-31T13:46:39.435Z,15.20
2018-03-31T13:49:07.946Z,15.10
2018-03-31T13:51:36.361Z,16.87
2018-03-31T13:54:04.858Z,16.27
2018-03-31T13:56:33.265Z,16.63
2018-03-31T13:59:02.817Z,17.57
2018-03-31T14:01:31.227Z,17.13
2018-03-31T14:03:59.812Z,16.30
2018-03-31T14:06:29.053Z,16.83
2018-03-31T14:08:57.812Z,18.47
2018-03-31T14:11:26.433Z,19.77
2018-03-31T14:13:54.885Z,21.20
2018-03-31T14:16:23.358Z,21.67
2018-03-31T14:18:51.993Z,21.33
2018-03-31T14:21:20.416Z,21.27
2018-03-31T14:23:48.816Z,22.27
2018-03-31T14:26:17.256Z,21.70
2018-03-31T14:28:46.443Z,20.87
2018-03-31T14:31:14.933Z,20.03
2018-03-31T14:33:44.215Z,19.13
2018-03-31T14:36:12.698Z,19.83
2018-03-31T14:38:41.263Z,20.60
2018-03-31T14:41:09.926Z,18.77
2018-03-31T14:43:38.365Z,18.90
2018-03-31T14:46:07.810Z,18.70
2018-03-31T14:48:36.216Z,19.70
2018-03-31T14:51:05.462Z,19.07
2018-03-31T14:53:33.868Z,20.40
2018-03-31T14:56:02.505Z,20.97
2018-03-31T14:58:30.982Z,20.80
2018-03-31T15:00:59.561Z,20.07
2018-03-31T15:03:28.802Z,19.47
2018-03-31T15:05:57.465Z,20.03
2018-03-31T15:08:25.944Z,19.20
2018-03-31T15:10:54.357Z,19.10
2018-03-31T15:13:23.611Z,21.40
2018-03-31T15:15:52.900Z,20.93
2018-03-31T15:18:21.429Z,20.33
2018-03-31T15:20:50.236Z,20.20
2018-03-31T15:23:19.680Z,21.50
2018-03-31T15:25:48.042Z,21.70
2018-03-31T15:28:16.443Z,20.47
2018-03-31T15:30:45.177Z,20.80
2018-03-31T15:33:14.326Z,19.23
2018-03-31T15:35:43.516Z,20.00
2018-03-31T15:38:12.148Z,19.90
2018-03-31T15:40:55.324Z,19.23
2018-03-31T15:43:34.018Z,20.30
2018-03-31T15:46:24.652Z,20.17
2018-03-31T15:49:13.034Z,18.97
2018-03-31T15:51:41.415Z,17.63
2018-03-31T15:54:11.141Z,19.73
2018-03-31T15:56:39.503Z,18.70
2018-03-31T15:59:15.378Z,18.63
2018-03-31T16:01:44.897Z,17.33
2018-03-31T16:04:14.124Z,18.57
2018-03-31T16:06:50.832Z,17.97
2018-03-31T16:09:19.617Z,18.10
2018-03-31T16:11:59.936Z,19.13
2018-03-31T16:14:55.673Z,17.67
2018-03-31T16:17:44.764Z,19.10
2018-03-31T16:20:14.960Z,18.33
2018-03-31T16:23:00.764Z,19.10
2018-03-31T16:25:35.498Z,18.07
2018-03-31T16:28:30.011Z,20.03
2018-03-31T16:31:14.559Z,20.17
2018-03-31T16:33:56.748Z,20.00
2018-03-31T16:39:21.048Z,19.13
2018-03-31T16:41:55.942Z,21.57
2018-03-31T16:44:34.402Z,22.33
2018-03-31T16:47:03.598Z,21.50
2018-03-31T16:49:32.050Z,22.87
2018-03-31T16:52:00.616Z,20.27
2018-03-31T16:54:29.537Z,21.27
2018-03-31T16:56:58.904Z,22.80
2018-03-31T16:59:27.445Z,22.53
2018-03-31T17:01:56.095Z,22.07
2018-03-31T17:04:24.913Z,21.53
2018-03-31T17:07:06.342Z,21.37
2018-03-31T17:09:35.667Z,19.47
2018-03-31T17:12:05.226Z,20.20
2018-03-31T17:14:33.878Z,20.97
2018-03-31T17:17:02.537Z,20.37
2018-03-31T17:19:31.374Z,19.97
2018-03-31T17:22:03.582Z,20.30
2018-03-31T17:24:33.307Z,20.07
2018-03-31T17:27:02.142Z,19.53
2018-03-31T17:29:31.147Z,19.50
2018-03-31T17:31:59.674Z,20.47
2018-03-31T17:34:28.168Z,20.27
2018-03-31T17:36:56.620Z,18.87
2018-03-31T17:39:25.930Z,20.37
2018-03-31T17:41:54.355Z,17.53
2018-03-31T17:44:23.317Z,18.57
2018-03-31T17:46:51.847Z,17.27
2018-03-31T17:49:20.331Z,18.77
2018-03-31T17:51:48.880Z,18.10
2018-03-31T17:54:17.365Z,17.90
2018-03-31T17:56:45.864Z,17.17
2018-03-31T17:59:14.670Z,17.97
2018-03-31T18:01:43.205Z,16.70
2018-03-31T18:04:12.516Z,18.10
2018-03-31T18:06:42.181Z,15.93
2018-03-31T18:09:11.721Z,15.77
2018-03-31T18:11:40.998Z,16.23
2018-03-31T18:14:10.587Z,16.73
2018-03-31T18:16:40.920Z,17.70
2018-03-31T18:19:10.760Z,16.50
2018-03-31T18:21:39.713Z,18.30
2018-03-31T18:24:10.036Z,19.27
2018-03-31T18:26:38.893Z,18.47
2018-03-31T18:29:08.753Z,18.93
2018-03-31T18:31:37.343Z,18.37
2018-03-31T18:34:06.323Z,18.30
2018-03-31T18:36:34.847Z,18.67
2018-03-31T18:39:03.451Z,20.27
2018-03-31T18:41:31.998Z,21.57
2018-03-31T18:44:00.597Z,22.60
2018-03-31T18:46:29.068Z,20.87
2018-03-31T18:48:57.678Z,23.77
2018-03-31T18:51:26.198Z,23.97
2018-03-31T18:53:55.682Z,23.00
2018-03-31T18:56:25.282Z,24.10
2018-03-31T18:58:54.757Z,22.10
2018-03-31T19:01:24.106Z,21.07
2018-03-31T19:03:52.711Z,25.13
2018-03-31T19:06:23.176Z,24.97
2018-03-31T19:08:53.238Z,23.47
2018-03-31T19:11:21.889Z,26.00
2018-03-31T19:13:51.369Z,27.10
2018-03-31T19:16:24.562Z,26.83
2018-03-31T19:18:58.140Z,29.50
2018-03-31T19:21:29.502Z,28.87
2018-03-31T19:24:02.354Z,32.73
2018-03-31T19:26:32.601Z,29.90
2018-03-31T19:29:03.553Z,29.13
2018-03-31T19:31:38.415Z,28.20
2018-03-31T19:34:13.289Z,28.10
2018-03-31T19:36:46.870Z,31.87
2018-03-31T19:39:24.397Z,30.73
2018-03-31T19:42:00.741Z,32.33
2018-03-31T19:44:31.679Z,35.63
2018-03-31T19:47:02.198Z,32.70
2018-03-31T19:49:32.096Z,29.67
2018-03-31T19:52:02.713Z,30.30
2018-03-31T19:54:32.865Z,30.90
2018-03-31T19:57:03.890Z,32.60
2018-03-31T19:59:34.714Z,29.73
2018-03-31T20:02:04.218Z,26.77
2018-03-31T20:04:32.873Z,25.13
2018-03-31T20:07:01.431Z,25.30
2018-03-31T20:09:33.037Z,22.17
2018-03-31T20:12:06.006Z,22.23
2018-03-31T20:14:35.992Z,22.30
2018-03-31T20:17:05.704Z,21.03
2018-03-31T20:19:35.314Z,22.27
2018-03-31T20:22:05.088Z,21.30
2018-03-31T20:24:35.291Z,19.60
2018-03-31T20:27:04.893Z,19.03
2018-03-31T20:29:34.185Z,19.57
2018-03-31T20:32:05.027Z,19.03
2018-03-31T20:34:35.342Z,20.67
2018-03-31T20:37:05.201Z,18.80
2018-03-31T20:39:34.635Z,20.67
2018-03-31T20:42:04.423Z,20.97
2018-03-31T20:44:34.272Z,20.80
2018-03-31T20:47:04.375Z,20.83
2018-03-31T20:49:34.084Z,19.90
2018-03-31T20:52:04.696Z,22.87
2018-03-31T20:54:34.579Z,20.03
2018-03-31T20:57:04.478Z,22.00
2018-03-31T20:59:35.496Z,21.40
2018-03-31T21:02:05.249Z,22.20
2018-03-31T21:04:35.887Z,21.80
2018-03-31T21:07:05.857Z,20.83
2018-03-31T21:09:35.449Z,23.33
2018-03-31T21:12:07.718Z,22.03
2018-03-31T21:14:38.556Z,21.47
2018-03-31T21:17:08.453Z,22.67
2018-03-31T21:19:38.787Z,22.13
2018-03-31T21:22:12.399Z,22.77
2018-03-31T21:24:43.011Z,22.73
2018-03-31T21:27:12.426Z,22.10
2018-03-31T21:29:42.290Z,21.57
2018-03-31T21:32:15.711Z,21.77
2018-03-31T21:34:46.869Z,21.40
2018-03-31T21:37:17.257Z,21.87
2018-03-31T21:39:46.945Z,21.37
2018-03-31T21:42:17.823Z,21.27
2018-03-31T21:44:49.570Z,22.97
2018-03-31T21:47:19.366Z,21.27
2018-03-31T21:49:48.032Z,21.50
2018-03-31T21:52:16.838Z,22.50
2018-03-31T21:54:46.566Z,20.07
2018-03-31T21:57:15.226Z,19.93
2018-03-31T21:59:43.666Z,18.33
2018-03-31T22:02:12.245Z,19.10
2018-03-31T22:04:41.167Z,19.03
2018-03-31T22:07:09.650Z,18.77
2018-03-31T22:09:38.305Z,18.00
2018-03-31T22:12:07.464Z,18.97
2018-03-31T22:16:44.661Z,18.90
2018-03-31T22:19:13.666Z,18.07
2018-03-31T22:21:42.763Z,18.83
2018-03-31T22:24:11.394Z,19.27
2018-03-31T22:26:40.264Z,19.37
2018-03-31T22:29:08.998Z,19.97
2018-03-31T22:31:38.203Z,19.27
2018-03-31T22:34:06.924Z,19.50
2018-03-31T22:36:36.554Z,19.83
2018-03-31T22:39:05.881Z,20.23
2018-03-31T22:41:34.818Z,21.60
2018-03-31T22:44:03.604Z,20.43
2018-03-31T22:46:32.695Z,21.47
2018-03-31T22:49:02.107Z,22.17
2018-03-31T22:51:31.571Z,22.83
2018-03-31T22:54:00.222Z,24.10
2018-03-31T22:56:30.099Z,21.60
2018-03-31T22:58:58.585Z,22.67
2018-03-31T23:01:28.056Z,22.67
2018-03-31T23:03:57.012Z,23.07
2018-03-31T23:06:26.370Z,21.40
2018-03-31T23:08:55.953Z,23.73
2018-03-31T23:11:24.923Z,22.70
2018-03-31T23:13:54.021Z,24.83
2018-03-31T23:16:24.259Z,23.33
2018-03-31T23:19:05.614Z,28.13
2018-03-31T23:21:36.322Z,24.17
2018-03-31T23:24:06.758Z,24.07
2018-03-31T23:26:39.132Z,27.20
2018-03-31T23:29:07.948Z,24.87
2018-03-31T23:31:36.875Z,24.87
2018-03-31T23:34:06.600Z,26.90
2018-03-31T23:36:35.673Z,25.70
2018-03-31T23:39:04.426Z,26.70
2018-03-31T23:41:33.134Z,25.93
2018-03-31T23:44:02.225Z,27.83
2018-03-31T23:46:30.886Z,28.00
2018-03-31T23:48:59.472Z,26.13
2018-03-31T23:51:28.825Z,25.87
2018-03-31T23:53:58.634Z,26.50
2018-03-31T23:56:27.192Z,28.20
2018-03-31T23:58:55.689Z,26.20
